createdAt,value
2019-05-20T00:02:24.408Z,11.30
2019-05-20T00:04:48.904Z,11.20
2019-05-20T00:07:21.326Z,11.20
2019-05-20T00:09:53.875Z,11.30
2019-05-20T00:12:27.174Z,11.20
2019-05-20T00:15:09.879Z,11.20
2019-05-20T00:17:43.927Z,11.20
2019-05-20T00:20:16.640Z,11.20
2019-05-20T00:22:48.770Z,11.20
2019-05-20T00:25:21.966Z,11.20
2019-05-20T00:27:57.682Z,11.20
2019-05-20T00:30:30.202Z,11.30
2019-05-20T00:33:03.092Z,11.20
2019-05-20T00:35:37.342Z,11.30
2019-05-20T00:38:11.770Z,11.20
2019-05-20T00:40:45.247Z,11.20
2019-05-20T00:43:18.179Z,11.20
2019-05-20T00:45:50.394Z,11.20
2019-05-20T00:48:22.840Z,11.20
2019-05-20T00:50:56.584Z,11.30
2019-05-20T00:53:30.487Z,11.20
2019-05-20T00:56:04.333Z,11.20
2019-05-20T00:58:37.240Z,11.20
2019-05-20T01:01:09.292Z,11.20
2019-05-20T01:03:40.914Z,11.20
2019-05-20T01:06:12.563Z,11.20
2019-05-20T01:08:44.188Z,11.20
2019-05-20T01:11:16.556Z,11.20
2019-05-20T01:13:48.129Z,11.20
2019-05-20T01:16:19.592Z,11.30
2019-05-20T01:18:51.858Z,11.30
2019-05-20T01:21:24.987Z,11.20
2019-05-20T01:23:58.138Z,11.20
2019-05-20T01:26:32.629Z,11.20
2019-05-20T01:29:05.597Z,11.20
2019-05-20T01:31:41.294Z,11.20
2019-05-20T01:34:14.338Z,11.20
2019-05-20T01:36:46.401Z,11.10
2019-05-20T01:39:20.204Z,11.20
2019-05-20T01:41:52.782Z,11.20
2019-05-20T01:44:25.752Z,11.20
2019-05-20T01:46:57.970Z,11.20
2019-05-20T01:49:31.013Z,11.20
2019-05-20T01:52:04.043Z,11.20
2019-05-20T01:54:38.122Z,11.20
2019-05-20T01:57:11.581Z,11.20
2019-05-20T01:59:43.779Z,11.20
2019-05-20T02:02:16.921Z,11.20
2019-05-20T02:04:49.667Z,11.20
2019-05-20T02:07:22.719Z,11.20
2019-05-20T02:09:57.982Z,11.20
2019-05-20T02:12:29.963Z,11.20
2019-05-20T02:15:09.559Z,11.20
2019-05-20T02:17:43.819Z,11.20
2019-05-20T02:20:15.810Z,11.20
2019-05-20T02:22:51.014Z,11.20
2019-05-20T02:25:26.999Z,11.20
2019-05-20T02:28:01.130Z,11.10
2019-05-20T02:30:33.368Z,11.20
2019-05-20T02:33:06.593Z,11.20
2019-05-20T02:35:41.942Z,11.20
2019-05-20T02:38:15.084Z,11.10
2019-05-20T02:40:48.734Z,11.10
2019-05-20T02:43:22.209Z,11.20
2019-05-20T02:45:55.176Z,11.20
2019-05-20T02:48:27.825Z,11.20
2019-05-20T02:51:01.727Z,11.10
2019-05-20T02:53:35.921Z,11.20
2019-05-20T02:56:08.389Z,11.20
2019-05-20T02:58:41.352Z,11.10
2019-05-20T03:01:14.069Z,11.10
2019-05-20T03:03:48.082Z,11.00
2019-05-20T03:06:21.204Z,11.00
2019-05-20T03:08:54.841Z,11.00
2019-05-20T03:11:28.223Z,11.00
2019-05-20T03:14:01.035Z,11.00
2019-05-20T03:16:33.535Z,11.00
2019-05-20T03:19:07.094Z,11.00
2019-05-20T03:21:39.668Z,11.00
2019-05-20T03:24:12.669Z,11.00
2019-05-20T03:26:52.128Z,11.00
2019-05-20T03:29:25.686Z,11.00
2019-05-20T03:32:00.965Z,11.00
2019-05-20T03:34:50.839Z,11.00
2019-05-20T03:37:13.394Z,11.00
2019-05-20T03:39:46.074Z,11.00
2019-05-20T03:42:19.908Z,11.00
2019-05-20T03:44:52.488Z,11.00
2019-05-20T03:47:24.879Z,11.00
2019-05-20T03:49:57.919Z,11.10
2019-05-20T03:52:30.500Z,11.10
2019-05-20T03:55:05.636Z,11.10
2019-05-20T03:57:38.703Z,11.10
2019-05-20T04:00:11.190Z,11.10
2019-05-20T04:02:44.724Z,11.10
2019-05-20T04:05:17.356Z,11.10
2019-05-20T04:07:50.249Z,11.10
2019-05-20T04:10:24.099Z,11.10
2019-05-20T04:12:57.629Z,11.10
2019-05-20T04:15:31.409Z,11.10
2019-05-20T04:18:06.245Z,11.20
2019-05-20T04:20:38.509Z,11.10
2019-05-20T04:23:10.871Z,11.10
2019-05-20T04:25:43.416Z,11.00
2019-05-20T04:28:15.423Z,11.10
2019-05-20T04:30:48.183Z,11.10
2019-05-20T04:33:20.350Z,11.10
2019-05-20T04:35:52.533Z,11.00
2019-05-20T04:38:24.270Z,11.10
2019-05-20T04:40:56.620Z,11.00
2019-05-20T04:43:29.163Z,11.00
2019-05-20T04:46:02.335Z,11.00
2019-05-20T04:48:35.206Z,11.00
2019-05-20T04:51:07.823Z,11.10
2019-05-20T04:53:40.895Z,11.00
2019-05-20T04:56:14.053Z,11.10
2019-05-20T04:58:47.501Z,11.00
2019-05-20T05:01:20.042Z,11.10
2019-05-20T05:03:52.517Z,11.00
2019-05-20T05:06:28.750Z,11.10
2019-05-20T05:09:01.751Z,11.10
2019-05-20T05:11:35.357Z,11.10
2019-05-20T05:14:07.638Z,11.10
2019-05-20T05:16:42.305Z,11.10
2019-05-20T05:19:15.489Z,11.20
2019-05-20T05:21:48.334Z,11.20
2019-05-20T05:24:21.519Z,11.20
2019-05-20T05:26:54.839Z,11.30
2019-05-20T05:29:30.932Z,11.20
2019-05-20T05:32:02.902Z,11.30
2019-05-20T05:34:35.446Z,11.30
2019-05-20T05:37:08.278Z,11.30
2019-05-20T05:39:40.689Z,11.30
2019-05-20T05:42:13.333Z,11.30
2019-05-20T05:44:45.985Z,11.40
2019-05-20T05:47:18.505Z,11.40
2019-05-20T05:49:50.758Z,11.40
2019-05-20T05:52:25.402Z,11.40
2019-05-20T05:54:58.793Z,11.40
2019-05-20T05:57:31.955Z,11.40
2019-05-20T06:00:05.263Z,11.40
2019-05-20T06:02:37.618Z,11.50
2019-05-20T06:05:11.312Z,11.50
2019-05-20T06:07:44.689Z,11.50
2019-05-20T06:10:17.727Z,11.50
2019-05-20T06:12:50.610Z,11.60
2019-05-20T06:15:25.022Z,11.60
2019-05-20T06:17:57.582Z,11.60
2019-05-20T06:20:30.052Z,11.60
2019-05-20T06:23:03.513Z,11.70
2019-05-20T06:25:36.010Z,11.70
2019-05-20T06:28:09.023Z,11.70
2019-05-20T06:30:44.031Z,11.70
2019-05-20T06:33:17.272Z,11.70
2019-05-20T06:35:51.132Z,11.70
2019-05-20T06:38:42.196Z,11.60
2019-05-20T06:41:15.956Z,11.60
2019-05-20T06:43:48.020Z,11.70
2019-05-20T06:46:20.328Z,11.70
2019-05-20T06:48:52.657Z,11.70
2019-05-20T06:51:24.736Z,11.60
2019-05-20T06:53:57.228Z,11.60
2019-05-20T06:56:29.216Z,11.60
2019-05-20T06:59:02.622Z,11.70
2019-05-20T07:01:35.585Z,11.70
2019-05-20T07:04:07.881Z,11.70
2019-05-20T07:06:46.779Z,11.70
2019-05-20T07:09:14.674Z,11.70
2019-05-20T07:11:52.785Z,11.80
2019-05-20T07:14:21.703Z,11.80
2019-05-20T07:16:53.653Z,11.80
2019-05-20T07:19:25.920Z,12.00
2019-05-20T07:21:58.215Z,11.90
2019-05-20T07:24:30.400Z,11.90
2019-05-20T07:27:02.883Z,11.90
2019-05-20T07:29:35.299Z,12.00
2019-05-20T07:32:07.930Z,11.90
2019-05-20T07:34:40.566Z,12.00
2019-05-20T07:37:13.403Z,12.10
2019-05-20T07:39:47.526Z,12.10
2019-05-20T07:42:19.877Z,12.10
2019-05-20T07:44:53.105Z,12.10
2019-05-20T07:47:26.056Z,12.20
2019-05-20T07:49:58.627Z,12.10
2019-05-20T07:52:31.585Z,12.20
2019-05-20T07:55:04.671Z,12.20
2019-05-20T07:57:41.160Z,12.20
2019-05-20T08:00:13.750Z,12.10
2019-05-20T08:02:46.166Z,12.10
2019-05-20T08:05:18.207Z,12.10
2019-05-20T08:07:52.886Z,12.10
2019-05-20T08:10:27.433Z,12.10
2019-05-20T08:12:59.689Z,12.30
2019-05-20T08:18:42.867Z,12.20
2019-05-20T08:21:16.036Z,12.20
2019-05-20T08:23:50.243Z,12.10
2019-05-20T08:26:24.395Z,12.20
2019-05-20T08:28:56.592Z,12.30
2019-05-20T08:31:29.139Z,12.20
2019-05-20T08:34:01.793Z,12.20
2019-05-20T08:36:34.330Z,12.30
2019-05-20T08:39:08.955Z,12.30
2019-05-20T08:41:41.642Z,12.30
2019-05-20T08:44:25.635Z,12.30
2019-05-20T08:47:00.816Z,12.40
2019-05-20T08:49:34.991Z,12.50
2019-05-20T08:52:07.719Z,12.50
2019-05-20T08:54:41.171Z,12.40
2019-05-20T08:57:15.618Z,12.50
2019-05-20T08:59:49.128Z,12.50
2019-05-20T09:02:22.233Z,12.50
2019-05-20T09:04:55.260Z,12.60
2019-05-20T09:07:27.614Z,12.40
2019-05-20T09:10:34.969Z,12.40
2019-05-20T09:13:13.875Z,12.30
2019-05-20T09:15:46.876Z,12.30
2019-05-20T09:18:21.333Z,12.30
2019-05-20T09:20:55.990Z,12.30
2019-05-20T09:23:28.587Z,12.20
2019-05-20T09:26:00.777Z,12.20
2019-05-20T09:28:33.525Z,12.20
2019-05-20T09:31:07.215Z,12.20
2019-05-20T09:33:39.663Z,12.30
2019-05-20T09:36:12.965Z,12.30
2019-05-20T09:38:46.170Z,12.20
2019-05-20T09:41:19.091Z,12.20
2019-05-20T09:43:51.523Z,12.40
2019-05-20T09:46:23.543Z,12.40
2019-05-20T09:48:57.125Z,12.60
2019-05-20T09:51:29.760Z,12.60
2019-05-20T09:54:01.989Z,12.60
2019-05-20T09:56:34.576Z,12.50
2019-05-20T09:59:06.793Z,12.60
2019-05-20T10:02:00.948Z,12.50
2019-05-20T10:04:32.973Z,12.60
2019-05-20T10:07:05.317Z,12.50
2019-05-20T10:09:37.447Z,12.60
2019-05-20T10:12:10.698Z,12.60
2019-05-20T10:14:42.991Z,12.60
2019-05-20T10:17:16.201Z,12.70
2019-05-20T10:19:48.381Z,12.70
2019-05-20T10:22:20.849Z,12.70
2019-05-20T10:24:52.813Z,12.80
2019-05-20T10:27:34.395Z,12.70
2019-05-20T10:30:08.637Z,12.70
2019-05-20T10:32:41.825Z,12.70
2019-05-20T10:35:14.998Z,12.80
2019-05-20T10:37:48.259Z,12.80
2019-05-20T10:40:45.862Z,12.80
2019-05-20T10:43:20.144Z,12.70
2019-05-20T10:45:54.996Z,12.80
2019-05-20T10:48:28.659Z,12.80
2019-05-20T10:51:11.797Z,13.00
2019-05-20T10:53:44.433Z,13.00
2019-05-20T10:56:18.090Z,12.90
2019-05-20T10:58:51.083Z,13.00
2019-05-20T11:01:23.606Z,12.80
2019-05-20T11:03:55.956Z,12.90
2019-05-20T11:06:28.489Z,12.80
2019-05-20T11:09:13.145Z,12.80
2019-05-20T11:11:35.244Z,12.80
2019-05-20T11:14:07.810Z,12.70
2019-05-20T11:16:41.307Z,12.80
2019-05-20T11:19:13.282Z,12.90
2019-05-20T11:21:46.172Z,12.90
2019-05-20T11:24:18.202Z,12.90
2019-05-20T11:26:51.074Z,13.10
2019-05-20T11:29:23.916Z,13.10
2019-05-20T11:31:57.069Z,13.20
2019-05-20T11:34:28.909Z,13.30
2019-05-20T11:37:01.604Z,13.10
2019-05-20T11:39:34.286Z,13.20
2019-05-20T11:42:07.806Z,13.20
2019-05-20T11:44:41.232Z,13.30
2019-05-20T11:47:14.247Z,13.40
2019-05-20T11:49:46.673Z,13.40
2019-05-20T11:52:19.265Z,13.40
2019-05-20T11:55:02.779Z,13.40
2019-05-20T11:57:37.852Z,13.10
2019-05-20T12:00:12.381Z,13.10
2019-05-20T12:02:44.881Z,13.10
2019-05-20T12:05:22.504Z,13.10
2019-05-20T12:08:04.545Z,13.20
2019-05-20T12:10:42.978Z,13.20
2019-05-20T12:13:15.537Z,13.20
2019-05-20T12:15:47.550Z,13.10
2019-05-20T12:18:19.750Z,13.00
2019-05-20T12:20:52.017Z,13.00
2019-05-20T12:23:24.442Z,13.10
2019-05-20T12:25:56.506Z,13.20
2019-05-20T12:28:28.927Z,13.20
2019-05-20T12:31:01.189Z,13.10
2019-05-20T12:33:33.101Z,13.10
2019-05-20T12:36:06.190Z,13.00
2019-05-20T12:38:38.721Z,13.00
2019-05-20T12:41:10.790Z,12.90
2019-05-20T12:43:45.206Z,12.90
2019-05-20T12:46:18.255Z,12.90
2019-05-20T12:48:52.939Z,13.00
2019-05-20T12:51:25.507Z,12.90
2019-05-20T12:53:57.471Z,12.90
2019-05-20T12:56:29.333Z,12.90
2019-05-20T12:59:01.795Z,13.00
2019-05-20T13:01:35.364Z,13.00
2019-05-20T13:04:08.920Z,12.90
2019-05-20T13:06:42.343Z,13.00
2019-05-20T13:09:14.787Z,12.90
2019-05-20T13:11:47.416Z,12.90
2019-05-20T13:14:20.398Z,12.80
2019-05-20T13:16:53.021Z,12.90
2019-05-20T13:19:28.340Z,12.90
2019-05-20T13:22:01.041Z,13.00
2019-05-20T13:24:34.030Z,13.00
2019-05-20T13:27:06.618Z,13.00
2019-05-20T13:29:39.113Z,12.90
2019-05-20T13:32:11.429Z,12.90
2019-05-20T13:34:43.387Z,12.90
2019-05-20T13:37:15.261Z,12.70
2019-05-20T13:39:48.046Z,12.70
2019-05-20T13:42:20.732Z,12.70
2019-05-20T13:44:52.768Z,12.70
2019-05-20T13:47:24.999Z,12.80
2019-05-20T13:49:57.567Z,12.80
2019-05-20T13:52:32.014Z,12.80
2019-05-20T13:55:03.892Z,13.00
2019-05-20T13:57:38.236Z,13.30
2019-05-20T14:00:11.472Z,13.60
2019-05-20T14:02:44.607Z,13.50
2019-05-20T14:05:17.911Z,13.70
2019-05-20T14:07:50.545Z,13.90
2019-05-20T14:10:23.108Z,13.80
2019-05-20T14:12:55.570Z,13.70
2019-05-20T14:15:33.462Z,13.40
2019-05-20T14:18:41.506Z,13.40
2019-05-20T14:21:19.122Z,13.70
2019-05-20T14:23:52.088Z,13.90
2019-05-20T14:26:24.807Z,13.70
2019-05-20T14:28:57.120Z,13.70
2019-05-20T14:31:29.025Z,13.60
2019-05-20T14:34:01.149Z,13.50
2019-05-20T14:36:39.845Z,13.50
2019-05-20T14:39:15.713Z,13.40
2019-05-20T14:41:50.822Z,13.40
2019-05-20T14:44:23.957Z,13.20
2019-05-20T14:47:11.838Z,13.10
2019-05-20T14:49:51.362Z,13.00
2019-05-20T14:52:24.976Z,12.90
2019-05-20T14:54:58.476Z,12.70
2019-05-20T14:57:31.171Z,12.60
2019-05-20T15:00:04.927Z,12.70
2019-05-20T15:02:39.265Z,12.60
2019-05-20T15:05:12.732Z,12.50
2019-05-20T15:07:44.909Z,12.50
2019-05-20T15:10:17.457Z,12.60
2019-05-20T15:12:50.203Z,12.60
2019-05-20T15:15:22.759Z,12.60
2019-05-20T15:17:54.867Z,12.50
2019-05-20T15:20:27.344Z,12.50
2019-05-20T15:22:59.236Z,12.50
2019-05-20T15:25:32.405Z,12.50
2019-05-20T15:28:05.028Z,12.50
2019-05-20T15:30:41.105Z,12.50
2019-05-20T15:33:13.210Z,12.40
2019-05-20T15:35:46.682Z,12.30
2019-05-20T15:38:18.478Z,12.30
2019-05-20T15:40:50.222Z,12.40
2019-05-20T15:43:22.189Z,12.40
2019-05-20T15:45:54.367Z,12.50
2019-05-20T15:48:26.611Z,12.40
2019-05-20T15:50:58.128Z,12.40
2019-05-20T15:53:29.737Z,12.50
2019-05-20T15:56:01.554Z,12.40
2019-05-20T15:58:33.279Z,12.40
2019-05-20T16:01:04.800Z,12.40
2019-05-20T16:03:36.681Z,12.40
2019-05-20T16:06:08.395Z,12.30
2019-05-20T16:08:40.139Z,12.30
2019-05-20T16:11:13.411Z,12.30
2019-05-20T16:13:45.847Z,12.40
2019-05-20T16:16:18.440Z,12.30
2019-05-20T16:18:50.889Z,12.40
2019-05-20T16:21:23.631Z,12.50
2019-05-20T16:23:55.633Z,12.40
2019-05-20T16:26:29.982Z,12.50
2019-05-20T16:29:03.382Z,12.50
2019-05-20T16:31:35.532Z,12.50
2019-05-20T16:34:07.909Z,12.50
2019-05-20T16:36:40.954Z,12.50
2019-05-20T16:39:13.297Z,12.50
2019-05-20T16:41:46.180Z,12.60
2019-05-20T16:44:18.272Z,12.60
2019-05-20T16:46:51.628Z,12.60
2019-05-20T16:49:24.089Z,12.50
2019-05-20T16:51:56.265Z,12.40
2019-05-20T16:54:28.234Z,12.50
2019-05-20T16:57:00.226Z,12.40
2019-05-20T16:59:32.510Z,12.40
2019-05-20T17:02:04.534Z,12.40
2019-05-20T17:04:36.464Z,12.40
2019-05-20T17:07:08.558Z,12.40
2019-05-20T17:09:41.997Z,12.40
2019-05-20T17:12:13.918Z,12.40
2019-05-20T17:14:45.755Z,12.40
2019-05-20T17:17:17.628Z,12.30
2019-05-20T17:19:50.828Z,12.30
2019-05-20T17:22:22.573Z,12.40
2019-05-20T17:24:54.876Z,12.40
2019-05-20T17:27:28.977Z,12.40
2019-05-20T17:30:03.713Z,12.20
2019-05-20T17:32:37.294Z,12.30
2019-05-20T17:35:09.224Z,12.30
2019-05-20T17:37:41.603Z,12.30
2019-05-20T17:40:14.029Z,12.30
2019-05-20T17:42:47.059Z,12.20
2019-05-20T17:45:19.484Z,12.10
2019-05-20T17:47:52.056Z,12.10
2019-05-20T17:50:24.135Z,12.20
2019-05-20T17:52:56.053Z,12.10
2019-05-20T17:55:29.595Z,12.20
2019-05-20T17:58:04.283Z,12.10
2019-05-20T18:00:37.337Z,12.10
2019-05-20T18:03:09.235Z,12.10
2019-05-20T18:05:45.821Z,12.10
2019-05-20T18:08:17.791Z,12.00
2019-05-20T18:10:49.994Z,12.00
2019-05-20T18:13:23.196Z,12.00
2019-05-20T18:15:55.438Z,12.00
2019-05-20T18:18:27.472Z,11.90
2019-05-20T18:20:59.285Z,11.90
2019-05-20T18:23:32.836Z,11.90
2019-05-20T18:26:06.131Z,11.90
2019-05-20T18:28:38.910Z,11.90
2019-05-20T18:31:11.518Z,11.90
2019-05-20T18:33:43.676Z,11.80
2019-05-20T18:36:16.297Z,11.80
2019-05-20T18:38:50.092Z,11.80
2019-05-20T18:41:26.021Z,11.80
2019-05-20T18:44:00.496Z,11.80
2019-05-20T18:46:32.479Z,11.80
2019-05-20T18:49:05.442Z,11.70
2019-05-20T18:51:37.620Z,11.80
2019-05-20T18:54:10.354Z,11.70
2019-05-20T18:56:42.491Z,11.70
2019-05-20T18:59:18.464Z,11.70
2019-05-20T19:02:04.518Z,11.70
2019-05-20T19:04:24.991Z,11.70
2019-05-20T19:06:57.277Z,11.70
2019-05-20T19:09:29.317Z,11.60
2019-05-20T19:12:01.276Z,11.60
2019-05-20T19:14:33.644Z,11.50
2019-05-20T19:17:08.234Z,11.50
2019-05-20T19:19:41.309Z,11.50
2019-05-20T19:22:13.522Z,11.50
2019-05-20T19:24:46.587Z,11.40
2019-05-20T19:27:18.678Z,11.40
2019-05-20T19:29:50.942Z,11.40
2019-05-20T19:32:23.549Z,11.40
2019-05-20T19:34:55.288Z,11.40
2019-05-20T19:37:33.561Z,11.40
2019-05-20T19:40:08.985Z,11.40
2019-05-20T19:42:44.587Z,11.40
2019-05-20T19:45:19.945Z,11.40
2019-05-20T19:47:57.239Z,11.50
2019-05-20T19:50:37.055Z,11.40
2019-05-20T19:53:14.153Z,11.40
2019-05-20T19:55:46.934Z,11.40
2019-05-20T19:58:19.424Z,11.30
2019-05-20T20:03:30.446Z,11.30
2019-05-20T20:06:12.431Z,11.40
2019-05-20T20:08:46.504Z,11.30
2019-05-20T20:11:18.916Z,11.30
2019-05-20T20:13:52.424Z,11.30
2019-05-20T20:16:24.858Z,11.30
2019-05-20T20:18:56.564Z,11.30
2019-05-20T20:21:31.188Z,11.30
2019-05-20T20:24:04.234Z,11.40
2019-05-20T20:26:36.631Z,11.30
2019-05-20T20:29:38.588Z,11.30
2019-05-20T20:32:36.420Z,11.30
2019-05-20T20:34:54.705Z,11.20
2019-05-20T20:37:27.060Z,11.20
2019-05-20T20:39:59.525Z,11.20
2019-05-20T20:42:31.854Z,11.20
2019-05-20T20:45:05.511Z,11.20
2019-05-20T20:47:41.821Z,11.10
2019-05-20T20:50:13.450Z,11.10
2019-05-20T20:52:46.151Z,11.00
2019-05-20T20:55:18.155Z,11.00
2019-05-20T20:57:50.421Z,11.00
2019-05-20T21:00:22.863Z,11.00
2019-05-20T21:02:55.142Z,11.00
2019-05-20T21:05:27.928Z,11.00
2019-05-20T21:08:10.673Z,11.00
2019-05-20T21:10:44.557Z,11.00
2019-05-20T21:13:16.599Z,11.00
2019-05-20T21:15:49.085Z,11.00
2019-05-20T21:18:21.293Z,11.00
2019-05-20T21:20:53.322Z,11.00
2019-05-20T21:23:32.648Z,11.00
2019-05-20T21:26:04.936Z,10.90
2019-05-20T21:28:37.367Z,10.90
2019-05-20T21:31:10.563Z,10.90
2019-05-20T21:33:44.532Z,10.80
2019-05-20T21:36:17.835Z,10.80
2019-05-20T21:38:49.911Z,10.80
2019-05-20T21:41:25.141Z,10.80
2019-05-20T21:43:57.839Z,10.80
2019-05-20T21:46:30.379Z,10.80
2019-05-20T21:49:03.352Z,10.80
2019-05-20T21:51:35.814Z,10.80
2019-05-20T21:54:08.002Z,10.80
2019-05-20T21:56:39.773Z,10.80
2019-05-20T21:59:13.554Z,10.80
2019-05-20T22:01:46.837Z,10.90
2019-05-20T22:04:18.940Z,10.90
2019-05-20T22:06:51.442Z,10.90
2019-05-20T22:09:23.550Z,10.90
2019-05-20T22:11:55.542Z,10.90
2019-05-20T22:14:27.450Z,10.80
2019-05-20T22:17:00.093Z,10.90
2019-05-20T22:19:33.736Z,10.90
2019-05-20T22:22:19.149Z,10.90
2019-05-20T22:24:52.934Z,10.90
2019-05-20T22:27:26.369Z,10.90
2019-05-20T22:29:59.020Z,10.90
2019-05-20T22:32:30.722Z,10.80
2019-05-20T22:35:08.974Z,10.80
2019-05-20T22:37:41.344Z,10.80
2019-05-20T22:40:15.231Z,10.80
2019-05-20T22:42:47.633Z,10.90
2019-05-20T22:45:20.430Z,10.90
2019-05-20T22:47:52.924Z,10.90
2019-05-20T22:50:24.885Z,10.90
2019-05-20T22:53:01.581Z,10.80
2019-05-20T22:55:34.302Z,10.90
2019-05-20T22:58:07.356Z,10.90
2019-05-20T23:00:40.463Z,10.80
2019-05-20T23:03:13.098Z,10.80
2019-05-20T23:05:45.760Z,10.80
2019-05-20T23:08:17.530Z,10.80
2019-05-20T23:10:50.835Z,10.80
2019-05-20T23:13:23.483Z,10.80
2019-05-20T23:15:55.934Z,10.80
2019-05-20T23:18:28.281Z,10.80
2019-05-20T23:21:00.263Z,10.80
2019-05-20T23:23:32.830Z,10.80
2019-05-20T23:26:06.400Z,10.80
2019-05-20T23:28:41.201Z,10.80
2019-05-20T23:31:13.528Z,10.80
2019-05-20T23:33:45.807Z,10.80
2019-05-20T23:36:17.650Z,10.80
2019-05-20T23:38:50.094Z,10.80
2019-05-20T23:41:22.586Z,10.80
2019-05-20T23:43:54.643Z,10.70
2019-05-20T23:46:30.697Z,10.70
2019-05-20T23:49:02.946Z,10.70
2019-05-20T23:51:35.188Z,10.60
2019-05-20T23:54:07.628Z,10.60
2019-05-20T23:56:39.419Z,10.50
2019-05-20T23:59:11.618Z,10.50
